sensor_id;sensor_type;location;lat;lon;timestamp;temperature;humidity
19019;DHT22;9642;50.842;4.348;2022-09-09T00:01:28;17.30;99.90
19019;DHT22;9642;50.842;4.348;2022-09-09T00:04:20;17.30;99.90
19019;DHT22;9642;50.842;4.348;2022-09-09T00:09:45;17.30;99.90
19019;DHT22;9642;50.842;4.348;2022-09-09T00:14:59;17.20;99.90
19019;DHT22;9642;50.842;4.348;2022-09-09T00:17:33;17.20;99.90
19019;DHT22;9642;50.842;4.348;2022-09-09T00:22:29;17.20;99.90
19019;DHT22;9642;50.842;4.348;2022-09-09T00:25:12;17.30;99.90
19019;DHT22;9642;50.842;4.348;2022-09-09T00:27:47;17.30;99.90
19019;DHT22;9642;50.842;4.348;2022-09-09T00:32:46;17.20;99.90
19019;DHT22;9642;50.842;4.348;2022-09-09T00:35:27;17.00;99.90
19019;DHT22;9642;50.842;4.348;2022-09-09T00:37:58;17.20;99.90
19019;DHT22;9642;50.842;4.348;2022-09-09T00:51:46;17.20;99.90
19019;DHT22;9642;50.842;4.348;2022-09-09T01:02:56;17.20;99.90
19019;DHT22;9642;50.842;4.348;2022-09-09T01:05:39;17.30;99.90
19019;DHT22;9642;50.842;4.348;2022-09-09T01:08:21;17.30;99.90
19019;DHT22;9642;50.842;4.348;2022-09-09T01:10:54;17.30;99.90
19019;DHT22;9642;50.842;4.348;2022-09-09T01:13:32;17.40;99.90
19019;DHT22;9642;50.842;4.348;2022-09-09T01:16:01;17.30;99.90
19019;DHT22;9642;50.842;4.348;2022-09-09T01:18:39;17.40;99.90
19019;DHT22;9642;50.842;4.348;2022-09-09T01:24:40;17.50;99.90
19019;DHT22;9642;50.842;4.348;2022-09-09T01:27:10;17.40;99.90
19019;DHT22;9642;50.842;4.348;2022-09-09T01:29:38;17.40;99.90
19019;DHT22;9642;50.842;4.348;2022-09-09T01:37:54;17.40;99.90
19019;DHT22;9642;50.842;4.348;2022-09-09T01:40:21;17.40;99.90
19019;DHT22;9642;50.842;4.348;2022-09-09T01:42:49;17.50;99.90
19019;DHT22;9642;50.842;4.348;2022-09-09T01:45:15;17.50;99.90
19019;DHT22;9642;50.842;4.348;2022-09-09T01:47:41;17.60;99.90
19019;DHT22;9642;50.842;4.348;2022-09-09T01:50:10;17.50;99.90
19019;DHT22;9642;50.842;4.348;2022-09-09T01:52:38;17.50;99.90
19019;DHT22;9642;50.842;4.348;2022-09-09T01:55:05;17.30;99.90
19019;DHT22;9642;50.842;4.348;2022-09-09T02:00:30;17.10;99.90
19019;DHT22;9642;50.842;4.348;2022-09-09T02:03:13;17.10;99.90
19019;DHT22;9642;50.842;4.348;2022-09-09T02:05:52;17.20;99.90
19019;DHT22;9642;50.842;4.348;2022-09-09T02:08:45;17.30;99.90
19019;DHT22;9642;50.842;4.348;2022-09-09T02:11:16;17.20;99.90
19019;DHT22;9642;50.842;4.348;2022-09-09T02:13:46;17.10;99.90
19019;DHT22;9642;50.842;4.348;2022-09-09T02:16:19;17.10;99.90
19019;DHT22;9642;50.842;4.348;2022-09-09T02:19:02;17.20;99.90
19019;DHT22;9642;50.842;4.348;2022-09-09T02:21:31;17.20;99.90
19019;DHT22;9642;50.842;4.348;2022-09-09T02:24:04;17.20;99.90
19019;DHT22;9642;50.842;4.348;2022-09-09T02:26:33;17.30;99.90
19019;DHT22;9642;50.842;4.348;2022-09-09T02:29:03;17.30;99.90
19019;DHT22;9642;50.842;4.348;2022-09-09T02:31:32;17.30;99.90
19019;DHT22;9642;50.842;4.348;2022-09-09T02:34:05;17.10;99.90
19019;DHT22;9642;50.842;4.348;2022-09-09T02:36:33;17.00;99.90
19019;DHT22;9642;50.842;4.348;2022-09-09T02:39:00;17.00;99.90
19019;DHT22;9642;50.842;4.348;2022-09-09T02:41:33;17.10;99.90
19019;DHT22;9642;50.842;4.348;2022-09-09T02:43:59;17.10;99.90
19019;DHT22;9642;50.842;4.348;2022-09-09T02:57:57;17.00;99.90
19019;DHT22;9642;50.842;4.348;2022-09-09T03:00:26;17.10;99.90
19019;DHT22;9642;50.842;4.348;2022-09-09T03:02:53;17.00;99.90
19019;DHT22;9642;50.842;4.348;2022-09-09T03:05:20;16.90;99.90
19019;DHT22;9642;50.842;4.348;2022-09-09T03:07:47;16.90;99.90
19019;DHT22;9642;50.842;4.348;2022-09-09T03:10:14;16.90;99.90
19019;DHT22;9642;50.842;4.348;2022-09-09T03:12:41;16.90;99.90
19019;DHT22;9642;50.842;4.348;2022-09-09T03:15:07;16.90;99.90
19019;DHT22;9642;50.842;4.348;2022-09-09T03:17:33;16.90;99.90
19019;DHT22;9642;50.842;4.348;2022-09-09T03:20:00;16.90;99.90
19019;DHT22;9642;50.842;4.348;2022-09-09T03:22:28;16.80;99.90
19019;DHT22;9642;50.842;4.348;2022-09-09T03:24:54;16.90;99.90
19019;DHT22;9642;50.842;4.348;2022-09-09T03:27:21;16.80;99.90
19019;DHT22;9642;50.842;4.348;2022-09-09T03:29:47;16.80;99.90
19019;DHT22;9642;50.842;4.348;2022-09-09T03:32:18;16.80;99.90
19019;DHT22;9642;50.842;4.348;2022-09-09T03:34:44;16.90;99.90
19019;DHT22;9642;50.842;4.348;2022-09-09T03:37:11;16.90;99.90
19019;DHT22;9642;50.842;4.348;2022-09-09T03:39:36;17.00;99.90
19019;DHT22;9642;50.842;4.348;2022-09-09T03:42:03;17.00;99.90
19019;DHT22;9642;50.842;4.348;2022-09-09T03:44:30;16.90;99.90
19019;DHT22;9642;50.842;4.348;2022-09-09T03:46:56;16.90;99.90
19019;DHT22;9642;50.842;4.348;2022-09-09T03:49:22;16.90;99.90
19019;DHT22;9642;50.842;4.348;2022-09-09T03:51:49;16.90;99.90
19019;DHT22;9642;50.842;4.348;2022-09-09T03:54:15;16.80;99.90
19019;DHT22;9642;50.842;4.348;2022-09-09T03:56:41;16.80;99.90
19019;DHT22;9642;50.842;4.348;2022-09-09T03:59:08;16.80;99.90
19019;DHT22;9642;50.842;4.348;2022-09-09T04:01:34;16.80;99.90
19019;DHT22;9642;50.842;4.348;2022-09-09T04:04:02;16.80;99.90
19019;DHT22;9642;50.842;4.348;2022-09-09T04:06:28;16.90;99.90
19019;DHT22;9642;50.842;4.348;2022-09-09T04:08:55;16.90;99.90
19019;DHT22;9642;50.842;4.348;2022-09-09T04:11:22;16.90;99.90
19019;DHT22;9642;50.842;4.348;2022-09-09T04:13:49;16.90;99.90
19019;DHT22;9642;50.842;4.348;2022-09-09T04:16:16;16.80;99.90
19019;DHT22;9642;50.842;4.348;2022-09-09T04:18:43;16.80;99.90
19019;DHT22;9642;50.842;4.348;2022-09-09T04:21:09;16.90;99.90
19019;DHT22;9642;50.842;4.348;2022-09-09T04:23:36;17.00;99.90
19019;DHT22;9642;50.842;4.348;2022-09-09T04:26:03;17.10;99.90
19019;DHT22;9642;50.842;4.348;2022-09-09T04:28:32;17.00;99.90
19019;DHT22;9642;50.842;4.348;2022-09-09T04:31:06;17.00;99.90
19019;DHT22;9642;50.842;4.348;2022-09-09T04:33:33;16.80;99.90
19019;DHT22;9642;50.842;4.348;2022-09-09T04:36:00;16.80;99.90
19019;DHT22;9642;50.842;4.348;2022-09-09T04:38:26;16.80;99.90
19019;DHT22;9642;50.842;4.348;2022-09-09T04:40:53;16.70;99.90
19019;DHT22;9642;50.842;4.348;2022-09-09T04:43:20;16.70;99.90
19019;DHT22;9642;50.842;4.348;2022-09-09T04:45:48;16.70;99.90
19019;DHT22;9642;50.842;4.348;2022-09-09T04:48:14;16.70;99.90
19019;DHT22;9642;50.842;4.348;2022-09-09T04:50:40;16.70;99.90
19019;DHT22;9642;50.842;4.348;2022-09-09T04:53:08;16.70;99.90
19019;DHT22;9642;50.842;4.348;2022-09-09T04:55:36;16.70;99.90
19019;DHT22;9642;50.842;4.348;2022-09-09T04:58:05;16.70;99.90
19019;DHT22;9642;50.842;4.348;2022-09-09T05:00:33;16.60;99.90
19019;DHT22;9642;50.842;4.348;2022-09-09T05:03:04;16.60;99.90
19019;DHT22;9642;50.842;4.348;2022-09-09T05:05:32;16.70;99.90
19019;DHT22;9642;50.842;4.348;2022-09-09T05:08:08;16.60;99.90
19019;DHT22;9642;50.842;4.348;2022-09-09T05:10:37;16.70;99.90
19019;DHT22;9642;50.842;4.348;2022-09-09T05:13:04;16.80;99.90
19019;DHT22;9642;50.842;4.348;2022-09-09T05:15:31;16.90;99.90
19019;DHT22;9642;50.842;4.348;2022-09-09T05:17:58;16.80;99.90
19019;DHT22;9642;50.842;4.348;2022-09-09T05:20:25;16.80;99.90
19019;DHT22;9642;50.842;4.348;2022-09-09T05:22:55;16.80;99.90
19019;DHT22;9642;50.842;4.348;2022-09-09T05:25:21;16.80;99.90
19019;DHT22;9642;50.842;4.348;2022-09-09T05:27:48;16.80;99.90
19019;DHT22;9642;50.842;4.348;2022-09-09T05:30:15;17.00;99.90
19019;DHT22;9642;50.842;4.348;2022-09-09T05:32:41;17.00;99.90
19019;DHT22;9642;50.842;4.348;2022-09-09T05:35:08;17.00;99.90
19019;DHT22;9642;50.842;4.348;2022-09-09T05:37:34;17.10;99.90
19019;DHT22;9642;50.842;4.348;2022-09-09T05:40:01;17.00;99.90
19019;DHT22;9642;50.842;4.348;2022-09-09T05:42:31;17.00;99.90
19019;DHT22;9642;50.842;4.348;2022-09-09T05:44:58;17.10;99.90
19019;DHT22;9642;50.842;4.348;2022-09-09T05:47:23;17.00;99.90
19019;DHT22;9642;50.842;4.348;2022-09-09T05:49:50;17.00;99.90
19019;DHT22;9642;50.842;4.348;2022-09-09T05:52:15;17.00;99.90
19019;DHT22;9642;50.842;4.348;2022-09-09T05:54:41;17.10;99.90
19019;DHT22;9642;50.842;4.348;2022-09-09T05:57:14;17.10;99.90
19019;DHT22;9642;50.842;4.348;2022-09-09T05:59:40;17.10;99.90
19019;DHT22;9642;50.842;4.348;2022-09-09T06:02:07;17.00;99.90
19019;DHT22;9642;50.842;4.348;2022-09-09T06:04:33;16.90;99.90
19019;DHT22;9642;50.842;4.348;2022-09-09T06:06:59;16.90;99.90
19019;DHT22;9642;50.842;4.348;2022-09-09T06:09:25;17.00;99.90
19019;DHT22;9642;50.842;4.348;2022-09-09T06:11:51;17.10;99.90
19019;DHT22;9642;50.842;4.348;2022-09-09T06:14:18;17.30;99.90
19019;DHT22;9642;50.842;4.348;2022-09-09T06:16:44;17.40;99.90
19019;DHT22;9642;50.842;4.348;2022-09-09T06:19:11;17.40;99.90
19019;DHT22;9642;50.842;4.348;2022-09-09T06:21:39;17.40;99.90
19019;DHT22;9642;50.842;4.348;2022-09-09T06:24:08;17.50;99.90
19019;DHT22;9642;50.842;4.348;2022-09-09T06:26:36;17.50;99.90
19019;DHT22;9642;50.842;4.348;2022-09-09T06:29:03;17.50;99.90
19019;DHT22;9642;50.842;4.348;2022-09-09T06:31:31;17.60;99.90
19019;DHT22;9642;50.842;4.348;2022-09-09T06:34:00;17.40;99.90
19019;DHT22;9642;50.842;4.348;2022-09-09T06:36:32;17.50;99.90
19019;DHT22;9642;50.842;4.348;2022-09-09T06:38:59;17.50;99.90
19019;DHT22;9642;50.842;4.348;2022-09-09T06:41:28;17.60;99.90
19019;DHT22;9642;50.842;4.348;2022-09-09T06:43:55;17.60;99.90
19019;DHT22;9642;50.842;4.348;2022-09-09T06:46:29;17.70;99.90
19019;DHT22;9642;50.842;4.348;2022-09-09T06:48:57;17.90;99.90
19019;DHT22;9642;50.842;4.348;2022-09-09T06:51:27;17.80;99.90
19019;DHT22;9642;50.842;4.348;2022-09-09T06:53:55;17.50;99.90
19019;DHT22;9642;50.842;4.348;2022-09-09T06:58:51;17.70;99.90
19019;DHT22;9642;50.842;4.348;2022-09-09T07:01:24;17.80;99.90
19019;DHT22;9642;50.842;4.348;2022-09-09T07:03:52;18.00;99.90
19019;DHT22;9642;50.842;4.348;2022-09-09T07:06:27;17.90;99.90
19019;DHT22;9642;50.842;4.348;2022-09-09T07:08:56;18.00;99.90
19019;DHT22;9642;50.842;4.348;2022-09-09T07:11:26;17.80;99.90
19019;DHT22;9642;50.842;4.348;2022-09-09T07:13:57;17.90;99.90
19019;DHT22;9642;50.842;4.348;2022-09-09T07:16:24;17.90;99.90
19019;DHT22;9642;50.842;4.348;2022-09-09T07:18:51;18.10;99.90
19019;DHT22;9642;50.842;4.348;2022-09-09T07:21:18;18.30;99.90
19019;DHT22;9642;50.842;4.348;2022-09-09T07:23:44;18.10;99.90
19019;DHT22;9642;50.842;4.348;2022-09-09T07:26:13;18.00;99.90
19019;DHT22;9642;50.842;4.348;2022-09-09T07:28:40;17.80;99.90
19019;DHT22;9642;50.842;4.348;2022-09-09T07:31:17;17.70;99.90
19019;DHT22;9642;50.842;4.348;2022-09-09T07:33:45;17.70;99.90
19019;DHT22;9642;50.842;4.348;2022-09-09T07:36:16;17.70;99.90
19019;DHT22;9642;50.842;4.348;2022-09-09T07:38:48;17.70;99.90
19019;DHT22;9642;50.842;4.348;2022-09-09T07:41:17;17.60;99.90
19019;DHT22;9642;50.842;4.348;2022-09-09T07:43:45;17.70;99.90
19019;DHT22;9642;50.842;4.348;2022-09-09T07:46:13;17.70;99.90
19019;DHT22;9642;50.842;4.348;2022-09-09T07:48:45;17.60;99.90
19019;DHT22;9642;50.842;4.348;2022-09-09T07:51:15;17.60;99.90
19019;DHT22;9642;50.842;4.348;2022-09-09T07:53:46;17.70;99.90
19019;DHT22;9642;50.842;4.348;2022-09-09T07:56:15;17.80;99.90
19019;DHT22;9642;50.842;4.348;2022-09-09T07:58:45;18.00;99.90
19019;DHT22;9642;50.842;4.348;2022-09-09T08:01:18;18.00;99.90
19019;DHT22;9642;50.842;4.348;2022-09-09T08:03:46;18.20;99.90
19019;DHT22;9642;50.842;4.348;2022-09-09T08:06:13;18.20;99.90
19019;DHT22;9642;50.842;4.348;2022-09-09T08:08:40;18.20;99.90
19019;DHT22;9642;50.842;4.348;2022-09-09T08:11:11;18.40;99.90
19019;DHT22;9642;50.842;4.348;2022-09-09T08:13:38;18.80;99.90
19019;DHT22;9642;50.842;4.348;2022-09-09T08:16:15;18.90;99.90
19019;DHT22;9642;50.842;4.348;2022-09-09T08:18:42;19.00;99.90
19019;DHT22;9642;50.842;4.348;2022-09-09T08:21:18;18.90;99.90
19019;DHT22;9642;50.842;4.348;2022-09-09T08:23:45;18.90;99.90
19019;DHT22;9642;50.842;4.348;2022-09-09T08:26:16;18.90;99.90
19019;DHT22;9642;50.842;4.348;2022-09-09T08:28:43;18.70;99.90
19019;DHT22;9642;50.842;4.348;2022-09-09T08:31:15;18.70;99.90
19019;DHT22;9642;50.842;4.348;2022-09-09T08:33:43;18.50;99.90
19019;DHT22;9642;50.842;4.348;2022-09-09T08:36:15;18.50;99.90
19019;DHT22;9642;50.842;4.348;2022-09-09T08:38:43;18.50;99.90
19019;DHT22;9642;50.842;4.348;2022-09-09T08:52:21;18.10;99.90
19019;DHT22;9642;50.842;4.348;2022-09-09T08:54:49;18.10;99.90
19019;DHT22;9642;50.842;4.348;2022-09-09T08:57:21;18.20;99.90
19019;DHT22;9642;50.842;4.348;2022-09-09T08:59:54;18.20;99.90
19019;DHT22;9642;50.842;4.348;2022-09-09T09:07:31;18.20;99.90
19019;DHT22;9642;50.842;4.348;2022-09-09T09:12:49;18.30;99.90
19019;DHT22;9642;50.842;4.348;2022-09-09T09:15:20;18.10;99.90
19019;DHT22;9642;50.842;4.348;2022-09-09T09:17:49;18.10;99.90
19019;DHT22;9642;50.842;4.348;2022-09-09T09:20:20;17.90;99.90
19019;DHT22;9642;50.842;4.348;2022-09-09T09:22:52;17.80;99.90
19019;DHT22;9642;50.842;4.348;2022-09-09T09:25:21;17.80;99.90
19019;DHT22;9642;50.842;4.348;2022-09-09T09:27:59;17.80;99.90
19019;DHT22;9642;50.842;4.348;2022-09-09T09:30:35;17.90;99.90
19019;DHT22;9642;50.842;4.348;2022-09-09T09:33:22;17.70;99.90
19019;DHT22;9642;50.842;4.348;2022-09-09T09:35:50;17.60;99.90
19019;DHT22;9642;50.842;4.348;2022-09-09T09:38:19;17.50;99.90
19019;DHT22;9642;50.842;4.348;2022-09-09T09:40:53;17.50;99.90
19019;DHT22;9642;50.842;4.348;2022-09-09T09:43:34;17.50;99.90
19019;DHT22;9642;50.842;4.348;2022-09-09T09:46:05;17.50;99.90
19019;DHT22;9642;50.842;4.348;2022-09-09T09:48:31;17.50;99.90
19019;DHT22;9642;50.842;4.348;2022-09-09T09:51:10;17.60;99.90
19019;DHT22;9642;50.842;4.348;2022-09-09T09:53:40;17.70;99.90
19019;DHT22;9642;50.842;4.348;2022-09-09T09:56:11;17.80;99.90
19019;DHT22;9642;50.842;4.348;2022-09-09T09:58:59;17.90;99.90
19019;DHT22;9642;50.842;4.348;2022-09-09T10:03:57;18.20;99.90
19019;DHT22;9642;50.842;4.348;2022-09-09T10:06:36;18.20;99.90
19019;DHT22;9642;50.842;4.348;2022-09-09T10:09:17;18.20;99.90
19019;DHT22;9642;50.842;4.348;2022-09-09T10:14:30;18.20;99.90
19019;DHT22;9642;50.842;4.348;2022-09-09T10:17:17;18.00;99.90
19019;DHT22;9642;50.842;4.348;2022-09-09T10:22:44;17.70;99.90
19019;DHT22;9642;50.842;4.348;2022-09-09T10:25:20;17.80;99.90
19019;DHT22;9642;50.842;4.348;2022-09-09T10:30:51;18.10;99.90
19019;DHT22;9642;50.842;4.348;2022-09-09T10:33:32;18.60;99.90
19019;DHT22;9642;50.842;4.348;2022-09-09T10:36:17;19.10;99.90
19019;DHT22;9642;50.842;4.348;2022-09-09T10:38:46;19.80;99.90
19019;DHT22;9642;50.842;4.348;2022-09-09T10:41:32;20.30;99.90
19019;DHT22;9642;50.842;4.348;2022-09-09T10:55:06;19.60;99.90
19019;DHT22;9642;50.842;4.348;2022-09-09T10:57:42;19.80;99.90
19019;DHT22;9642;50.842;4.348;2022-09-09T11:02:56;20.10;99.90
19019;DHT22;9642;50.842;4.348;2022-09-09T11:05:41;20.50;99.90
19019;DHT22;9642;50.842;4.348;2022-09-09T11:08:18;20.70;99.90
19019;DHT22;9642;50.842;4.348;2022-09-09T11:14:04;20.10;99.90
19019;DHT22;9642;50.842;4.348;2022-09-09T11:19:26;19.60;99.90
19019;DHT22;9642;50.842;4.348;2022-09-09T11:21:55;19.70;99.90
19019;DHT22;9642;50.842;4.348;2022-09-09T11:24:41;19.90;99.90
19019;DHT22;9642;50.842;4.348;2022-09-09T11:27:24;19.90;99.90
19019;DHT22;9642;50.842;4.348;2022-09-09T11:40:46;20.00;99.90
19019;DHT22;9642;50.842;4.348;2022-09-09T11:46:04;19.60;99.90
19019;DHT22;9642;50.842;4.348;2022-09-09T11:48:39;19.90;99.90
19019;DHT22;9642;50.842;4.348;2022-09-09T11:51:08;20.30;99.90
19019;DHT22;9642;50.842;4.348;2022-09-09T11:53:35;20.30;99.90
19019;DHT22;9642;50.842;4.348;2022-09-09T11:56:13;19.90;99.90
19019;DHT22;9642;50.842;4.348;2022-09-09T12:01:33;19.70;99.90
19019;DHT22;9642;50.842;4.348;2022-09-09T12:07:21;19.70;99.90
19019;DHT22;9642;50.842;4.348;2022-09-09T12:09:54;19.60;99.90
19019;DHT22;9642;50.842;4.348;2022-09-09T12:17:45;19.20;99.90
19019;DHT22;9642;50.842;4.348;2022-09-09T12:20:19;19.40;99.90
19019;DHT22;9642;50.842;4.348;2022-09-09T12:34:16;19.60;99.90
19019;DHT22;9642;50.842;4.348;2022-09-09T12:36:44;20.00;99.90
19019;DHT22;9642;50.842;4.348;2022-09-09T12:39:32;20.00;99.90
19019;DHT22;9642;50.842;4.348;2022-09-09T12:42:00;20.00;99.90
19019;DHT22;9642;50.842;4.348;2022-09-09T12:44:26;20.30;99.90
19019;DHT22;9642;50.842;4.348;2022-09-09T12:46:58;20.50;99.90
19019;DHT22;9642;50.842;4.348;2022-09-09T12:49:38;20.70;99.90
19019;DHT22;9642;50.842;4.348;2022-09-09T12:52:20;20.80;99.90
19019;DHT22;9642;50.842;4.348;2022-09-09T12:54:48;21.10;99.80
19019;DHT22;9642;50.842;4.348;2022-09-09T12:57:17;20.90;99.90
19019;DHT22;9642;50.842;4.348;2022-09-09T12:59:44;21.20;99.60
19019;DHT22;9642;50.842;4.348;2022-09-09T13:04:45;21.50;98.70
19019;DHT22;9642;50.842;4.348;2022-09-09T13:07:13;21.30;98.70
19019;DHT22;9642;50.842;4.348;2022-09-09T13:09:39;21.10;98.80
19019;DHT22;9642;50.842;4.348;2022-09-09T13:12:28;20.80;99.70
19019;DHT22;9642;50.842;4.348;2022-09-09T13:14:55;20.80;99.90
19019;DHT22;9642;50.842;4.348;2022-09-09T13:17:24;21.00;99.60
19019;DHT22;9642;50.842;4.348;2022-09-09T13:19:52;21.00;99.30
19019;DHT22;9642;50.842;4.348;2022-09-09T13:22:29;20.80;99.90
19019;DHT22;9642;50.842;4.348;2022-09-09T13:27:41;21.20;99.50
19019;DHT22;9642;50.842;4.348;2022-09-09T13:30:34;21.10;99.10
19019;DHT22;9642;50.842;4.348;2022-09-09T13:35:59;21.20;98.70
19019;DHT22;9642;50.842;4.348;2022-09-09T13:38:31;21.30;98.50
19019;DHT22;9642;50.842;4.348;2022-09-09T13:41:10;21.40;98.30
19019;DHT22;9642;50.842;4.348;2022-09-09T13:43:38;21.50;98.20
19019;DHT22;9642;50.842;4.348;2022-09-09T13:46:33;21.50;98.30
19019;DHT22;9642;50.842;4.348;2022-09-09T13:51:42;21.90;97.90
19019;DHT22;9642;50.842;4.348;2022-09-09T13:54:10;22.10;97.20
19019;DHT22;9642;50.842;4.348;2022-09-09T13:56:37;22.40;96.80
19019;DHT22;9642;50.842;4.348;2022-09-09T13:59:05;22.40;96.60
19019;DHT22;9642;50.842;4.348;2022-09-09T14:01:32;22.00;96.70
19019;DHT22;9642;50.842;4.348;2022-09-09T14:04:00;21.80;97.50
19019;DHT22;9642;50.842;4.348;2022-09-09T14:06:26;21.60;97.60
19019;DHT22;9642;50.842;4.348;2022-09-09T14:08:53;21.60;97.80
19019;DHT22;9642;50.842;4.348;2022-09-09T14:11:21;21.40;98.50
19019;DHT22;9642;50.842;4.348;2022-09-09T14:13:49;21.20;98.60
19019;DHT22;9642;50.842;4.348;2022-09-09T14:16:18;21.30;98.40
19019;DHT22;9642;50.842;4.348;2022-09-09T14:18:48;21.50;98.40
19019;DHT22;9642;50.842;4.348;2022-09-09T14:21:14;21.30;98.60
19019;DHT22;9642;50.842;4.348;2022-09-09T14:23:41;21.10;99.20
19019;DHT22;9642;50.842;4.348;2022-09-09T14:26:08;20.80;99.20
19019;DHT22;9642;50.842;4.348;2022-09-09T14:28:35;20.70;99.90
19019;DHT22;9642;50.842;4.348;2022-09-09T14:31:03;20.70;99.90
19019;DHT22;9642;50.842;4.348;2022-09-09T14:33:30;20.60;99.90
19019;DHT22;9642;50.842;4.348;2022-09-09T14:35:58;20.80;99.90
19019;DHT22;9642;50.842;4.348;2022-09-09T14:38:25;21.10;99.40
19019;DHT22;9642;50.842;4.348;2022-09-09T14:40:51;21.30;98.70
19019;DHT22;9642;50.842;4.348;2022-09-09T14:43:17;21.10;99.20
19019;DHT22;9642;50.842;4.348;2022-09-09T14:45:43;21.10;99.40
19019;DHT22;9642;50.842;4.348;2022-09-09T14:48:10;21.10;99.40
19019;DHT22;9642;50.842;4.348;2022-09-09T14:50:36;21.30;98.80
19019;DHT22;9642;50.842;4.348;2022-09-09T14:53:05;21.50;98.80
19019;DHT22;9642;50.842;4.348;2022-09-09T14:55:31;21.80;97.80
19019;DHT22;9642;50.842;4.348;2022-09-09T14:57:57;21.90;97.50
19019;DHT22;9642;50.842;4.348;2022-09-09T15:00:24;22.00;97.00
19019;DHT22;9642;50.842;4.348;2022-09-09T15:02:54;22.00;96.80
19019;DHT22;9642;50.842;4.348;2022-09-09T15:05:23;21.70;97.10
19019;DHT22;9642;50.842;4.348;2022-09-09T15:07:50;21.40;97.40
19019;DHT22;9642;50.842;4.348;2022-09-09T15:10:19;21.40;97.80
19019;DHT22;9642;50.842;4.348;2022-09-09T15:12:44;21.30;97.60
19019;DHT22;9642;50.842;4.348;2022-09-09T15:15:10;21.30;97.60
19019;DHT22;9642;50.842;4.348;2022-09-09T15:17:36;21.20;97.90
19019;DHT22;9642;50.842;4.348;2022-09-09T15:20:03;21.10;98.20
19019;DHT22;9642;50.842;4.348;2022-09-09T15:22:31;21.30;98.00
19019;DHT22;9642;50.842;4.348;2022-09-09T15:25:02;21.50;97.60
19019;DHT22;9642;50.842;4.348;2022-09-09T15:27:28;21.70;97.30
19019;DHT22;9642;50.842;4.348;2022-09-09T15:29:57;21.60;97.50
19019;DHT22;9642;50.842;4.348;2022-09-09T15:32:24;21.40;97.40
19019;DHT22;9642;50.842;4.348;2022-09-09T15:34:49;21.40;97.40
19019;DHT22;9642;50.842;4.348;2022-09-09T15:37:16;21.20;97.60
19019;DHT22;9642;50.842;4.348;2022-09-09T15:39:42;20.90;98.20
19019;DHT22;9642;50.842;4.348;2022-09-09T15:42:08;20.80;98.50
19019;DHT22;9642;50.842;4.348;2022-09-09T15:44:43;20.90;98.60
19019;DHT22;9642;50.842;4.348;2022-09-09T15:47:11;21.00;98.40
19019;DHT22;9642;50.842;4.348;2022-09-09T15:49:38;21.10;98.20
19019;DHT22;9642;50.842;4.348;2022-09-09T15:52:05;21.30;97.60
19019;DHT22;9642;50.842;4.348;2022-09-09T15:54:34;21.20;97.50
19019;DHT22;9642;50.842;4.348;2022-09-09T15:57:04;21.00;99.00
19019;DHT22;9642;50.842;4.348;2022-09-09T15:59:31;20.90;99.70
19019;DHT22;9642;50.842;4.348;2022-09-09T16:01:57;20.90;99.40
19019;DHT22;9642;50.842;4.348;2022-09-09T16:04:26;20.90;99.40
19019;DHT22;9642;50.842;4.348;2022-09-09T16:06:54;20.90;99.40
19019;DHT22;9642;50.842;4.348;2022-09-09T16:09:20;20.90;99.40
19019;DHT22;9642;50.842;4.348;2022-09-09T16:11:47;20.70;99.70
19019;DHT22;9642;50.842;4.348;2022-09-09T16:14:14;20.80;99.70
19019;DHT22;9642;50.842;4.348;2022-09-09T16:16:41;20.80;99.70
19019;DHT22;9642;50.842;4.348;2022-09-09T16:19:12;20.80;99.60
19019;DHT22;9642;50.842;4.348;2022-09-09T16:21:40;20.70;99.90
19019;DHT22;9642;50.842;4.348;2022-09-09T16:24:10;20.70;99.90
19019;DHT22;9642;50.842;4.348;2022-09-09T16:26:38;20.80;99.90
19019;DHT22;9642;50.842;4.348;2022-09-09T16:29:04;20.80;99.90
19019;DHT22;9642;50.842;4.348;2022-09-09T16:31:31;20.70;99.90
19019;DHT22;9642;50.842;4.348;2022-09-09T16:33:57;20.50;99.10
19019;DHT22;9642;50.842;4.348;2022-09-09T16:36:26;20.20;98.90
19019;DHT22;9642;50.842;4.348;2022-09-09T16:39:13;19.90;99.90
19019;DHT22;9642;50.842;4.348;2022-09-09T16:41:41;19.70;99.90
19019;DHT22;9642;50.842;4.348;2022-09-09T16:44:09;19.70;99.90
19019;DHT22;9642;50.842;4.348;2022-09-09T16:46:37;19.70;99.90
19019;DHT22;9642;50.842;4.348;2022-09-09T16:49:06;19.80;99.90
19019;DHT22;9642;50.842;4.348;2022-09-09T16:51:36;20.00;99.90
19019;DHT22;9642;50.842;4.348;2022-09-09T16:54:05;20.10;99.90
19019;DHT22;9642;50.842;4.348;2022-09-09T16:56:33;20.20;99.90
19019;DHT22;9642;50.842;4.348;2022-09-09T16:59:01;20.10;99.90
19019;DHT22;9642;50.842;4.348;2022-09-09T17:01:29;20.10;99.90
19019;DHT22;9642;50.842;4.348;2022-09-09T17:04:01;19.90;99.90
19019;DHT22;9642;50.842;4.348;2022-09-09T17:06:32;19.80;99.90
19019;DHT22;9642;50.842;4.348;2022-09-09T17:09:08;19.80;99.90
19019;DHT22;9642;50.842;4.348;2022-09-09T17:11:35;19.80;99.90
19019;DHT22;9642;50.842;4.348;2022-09-09T17:14:01;19.90;99.90
19019;DHT22;9642;50.842;4.348;2022-09-09T17:16:29;19.90;99.90
19019;DHT22;9642;50.842;4.348;2022-09-09T17:18:57;19.90;99.90
19019;DHT22;9642;50.842;4.348;2022-09-09T17:21:25;19.80;99.90
19019;DHT22;9642;50.842;4.348;2022-09-09T17:23:52;19.70;99.90
19019;DHT22;9642;50.842;4.348;2022-09-09T17:26:22;19.60;99.90
19019;DHT22;9642;50.842;4.348;2022-09-09T17:28:48;19.40;99.90
19019;DHT22;9642;50.842;4.348;2022-09-09T17:31:16;19.30;99.90
19019;DHT22;9642;50.842;4.348;2022-09-09T17:33:44;19.30;99.90
19019;DHT22;9642;50.842;4.348;2022-09-09T17:36:19;19.30;99.90
19019;DHT22;9642;50.842;4.348;2022-09-09T17:38:45;19.20;99.90
19019;DHT22;9642;50.842;4.348;2022-09-09T17:41:15;19.30;99.90
19019;DHT22;9642;50.842;4.348;2022-09-09T17:43:42;19.30;99.90
19019;DHT22;9642;50.842;4.348;2022-09-09T17:46:13;19.30;99.90
19019;DHT22;9642;50.842;4.348;2022-09-09T17:48:40;19.30;99.90
19019;DHT22;9642;50.842;4.348;2022-09-09T17:51:08;19.40;99.90
19019;DHT22;9642;50.842;4.348;2022-09-09T17:53:42;19.40;99.90
19019;DHT22;9642;50.842;4.348;2022-09-09T17:56:10;19.30;99.90
19019;DHT22;9642;50.842;4.348;2022-09-09T17:58:36;19.30;99.90
19019;DHT22;9642;50.842;4.348;2022-09-09T18:01:14;19.20;99.90
19019;DHT22;9642;50.842;4.348;2022-09-09T18:03:42;19.30;99.90
19019;DHT22;9642;50.842;4.348;2022-09-09T18:06:11;19.20;99.90
19019;DHT22;9642;50.842;4.348;2022-09-09T18:08:50;19.20;99.90
19019;DHT22;9642;50.842;4.348;2022-09-09T18:11:18;19.10;99.90
19019;DHT22;9642;50.842;4.348;2022-09-09T18:13:53;19.00;99.90
19019;DHT22;9642;50.842;4.348;2022-09-09T18:16:21;18.90;99.90
19019;DHT22;9642;50.842;4.348;2022-09-09T18:18:48;18.90;99.90
19019;DHT22;9642;50.842;4.348;2022-09-09T18:21:18;19.00;99.90
19019;DHT22;9642;50.842;4.348;2022-09-09T18:23:45;19.00;99.90
19019;DHT22;9642;50.842;4.348;2022-09-09T18:26:16;19.00;99.90
19019;DHT22;9642;50.842;4.348;2022-09-09T18:28:46;19.00;99.90
19019;DHT22;9642;50.842;4.348;2022-09-09T18:31:15;19.00;99.90
19019;DHT22;9642;50.842;4.348;2022-09-09T18:33:43;19.00;99.90
19019;DHT22;9642;50.842;4.348;2022-09-09T18:36:12;19.00;99.90